Time;durP1;ratioP1;P1;durP2;ratioP2;P2;SDS_P1;SDS_P2;PMS_P1;PMS_P2;Temp;Humidity;BMP_temperature;BMP_pressure;BME280_temperature;BME280_humidity;BME280_pressure;Samples;Min_cycle;Max_cycle;Signal;HPM_P1;HPM_P2
2022/10/17 00:00:56;;;;;;;16.23;2.90;;;;;;;;;;4948926;28;20059;-71
2022/10/17 00:03:23;;;;;;;11.30;2.67;;;;;;;;;;4939213;28;20051;-72
2022/10/17 00:05:50;;;;;;;17.42;2.90;;;;;;;;;;4943245;28;20055;-71
2022/10/17 00:08:18;;;;;;;13.40;2.60;;;;;;;;;;4954516;28;20475;-70
2022/10/17 00:10:55;;;;;;;14.77;3.20;;;;;;;;;;4948665;28;20062;-72
2022/10/17 00:13:22;;;;;;;14.13;2.70;;;;;;;;;;4962070;28;20046;-72
2022/10/17 00:15:50;;;;;;;14.05;2.97;;;;;;;;;;4943775;28;144716;-72
2022/10/17 00:18:17;;;;;;;14.25;3.75;;;;;;;;;;4944928;28;20055;-72
2022/10/17 00:20:44;;;;;;;12.98;2.63;;;;;;;;;;4946930;28;20600;-71
2022/10/17 00:23:12;;;;;;;12.38;2.60;;;;;;;;;;4944072;28;20055;-72
2022/10/17 00:25:39;;;;;;;14.93;2.90;;;;;;;;;;4964608;28;20542;-71
2022/10/17 00:28:08;;;;;;;13.35;2.45;;;;;;;;;;4967690;28;20782;-71
2022/10/17 00:30:36;;;;;;;12.80;3.13;;;;;;;;;;4951240;28;21269;-72
2022/10/17 00:33:03;;;;;;;18.50;2.65;;;;;;;;;;4948743;28;20050;-71
2022/10/17 00:35:30;;;;;;;18.42;3.13;;;;;;;;;;4965543;28;20046;-71
2022/10/17 00:37:58;;;;;;;11.77;2.72;;;;;;;;;;4966614;28;20051;-71
2022/10/17 00:40:25;;;;;;;13.45;2.50;;;;;;;;;;4951315;28;20847;-71
2022/10/17 00:42:52;;;;;;;9.18;2.20;;;;;;;;;;4965082;28;20043;-71
2022/10/17 00:45:23;;;;;;;15.55;2.67;;;;;;;;;;4951824;28;20062;-71
2022/10/17 00:47:53;;;;;;;15.88;2.60;;;;;;;;;;4946359;28;20050;-71
2022/10/17 00:50:21;;;;;;;14.65;2.60;;;;;;;;;;4963423;28;20074;-72
2022/10/17 00:52:49;;;;;;;15.93;2.67;;;;;;;;;;4941828;28;20051;-71
2022/10/17 00:55:18;;;;;;;18.45;2.72;;;;;;;;;;4962579;28;20598;-71
2022/10/17 00:57:46;;;;;;;12.23;2.65;;;;;;;;;;4944086;28;20066;-71
2022/10/17 01:00:13;;;;;;;11.63;2.72;;;;;;;;;;4967079;28;20126;-71
2022/10/17 01:02:42;;;;;;;15.55;2.83;;;;;;;;;;4949148;28;20062;-72
2022/10/17 01:05:09;;;;;;;14.65;3.60;;;;;;;;;;4949123;28;20051;-71
2022/10/17 01:07:37;;;;;;;13.07;3.03;;;;;;;;;;4946718;28;20051;-71
2022/10/17 01:10:05;;;;;;;11.18;2.85;;;;;;;;;;4964677;28;20051;-73
2022/10/17 01:12:36;;;;;;;14.98;3.38;;;;;;;;;;4949006;28;20066;-72
2022/10/17 01:15:07;;;;;;;12.65;3.22;;;;;;;;;;4948441;28;20058;-70
2022/10/17 01:17:40;;;;;;;8.13;2.95;;;;;;;;;;4962359;28;20074;-71
2022/10/17 01:20:28;;;;;;;13.35;3.47;;;;;;;;;;4966317;28;20058;-71
2022/10/17 01:23:01;;;;;;;12.57;3.50;;;;;;;;;;4930383;28;20664;-71
2022/10/17 01:25:30;;;;;;;12.68;3.38;;;;;;;;;;4946375;28;20055;-71
2022/10/17 01:28:07;;;;;;;12.15;3.30;;;;;;;;;;4941908;28;20090;-72
2022/10/17 01:30:52;;;;;;;9.88;3.38;;;;;;;;;;4945560;28;20051;-70
2022/10/17 01:33:27;;;;;;;13.57;3.45;;;;;;;;;;4959511;28;20054;-70
2022/10/17 01:35:57;;;;;;;16.33;4.00;;;;;;;;;;4958415;28;20102;-71
2022/10/17 01:38:27;;;;;;;12.57;3.10;;;;;;;;;;4948551;28;20058;-72
2022/10/17 01:40:56;;;;;;;9.80;3.25;;;;;;;;;;4947337;28;20046;-72
2022/10/17 01:43:26;;;;;;;11.50;4.00;;;;;;;;;;4966432;28;20414;-72
2022/10/17 01:45:57;;;;;;;15.57;4.32;;;;;;;;;;4944449;28;20590;-71
2022/10/17 01:48:28;;;;;;;10.57;4.32;;;;;;;;;;4941601;28;20055;-71
2022/10/17 01:50:59;;;;;;;17.60;5.00;;;;;;;;;;4938420;28;20051;-72
2022/10/17 01:53:29;;;;;;;11.07;4.10;;;;;;;;;;4941729;28;20904;-71
2022/10/17 01:55:59;;;;;;;9.07;4.30;;;;;;;;;;4948573;28;20057;-73
2022/10/17 01:58:29;;;;;;;14.50;4.55;;;;;;;;;;4949184;28;20051;-72
2022/10/17 02:00:57;;;;;;;16.10;5.32;;;;;;;;;;4947083;28;20781;-71
2022/10/17 02:03:27;;;;;;;14.75;4.80;;;;;;;;;;4948409;28;20062;-71
2022/10/17 02:05:55;;;;;;;15.20;4.72;;;;;;;;;;4962275;28;20114;-72
2022/10/17 02:08:26;;;;;;;11.38;4.70;;;;;;;;;;4963137;28;20062;-71
2022/10/17 02:10:55;;;;;;;21.10;5.70;;;;;;;;;;4942569;28;20051;-71
2022/10/17 02:13:28;;;;;;;11.43;4.97;;;;;;;;;;4960655;28;20062;-73
2022/10/17 02:16:13;;;;;;;15.27;5.38;;;;;;;;;;4948925;28;20117;-72
2022/10/17 02:18:55;;;;;;;15.00;5.55;;;;;;;;;;4946554;28;20066;-72
2022/10/17 02:21:28;;;;;;;12.60;5.18;;;;;;;;;;4945133;28;20059;-72
2022/10/17 02:23:56;;;;;;;16.27;5.40;;;;;;;;;;4948945;28;20062;-71
2022/10/17 02:26:27;;;;;;;14.35;5.50;;;;;;;;;;4947141;28;20051;-71
2022/10/17 02:29:00;;;;;;;13.32;5.50;;;;;;;;;;4948284;28;20085;-71
2022/10/17 02:31:30;;;;;;;15.20;5.38;;;;;;;;;;4943270;28;20046;-71
2022/10/17 02:33:59;;;;;;;8.90;5.63;;;;;;;;;;4946837;28;20063;-71
2022/10/17 02:36:31;;;;;;;12.88;5.85;;;;;;;;;;4948933;28;20059;-72
2022/10/17 02:38:59;;;;;;;17.50;5.82;;;;;;;;;;4947441;28;20081;-72
2022/10/17 02:41:26;;;;;;;17.08;6.15;;;;;;;;;;4949120;28;20165;-71
2022/10/17 02:43:54;;;;;;;12.40;6.00;;;;;;;;;;4947140;28;21306;-72
2022/10/17 02:46:22;;;;;;;16.33;6.35;;;;;;;;;;4948564;28;20063;-71
2022/10/17 02:48:52;;;;;;;13.00;6.32;;;;;;;;;;4949246;28;20062;-71
2022/10/17 02:51:25;;;;;;;15.85;6.85;;;;;;;;;;4964614;28;20058;-71
2022/10/17 02:53:56;;;;;;;15.20;6.07;;;;;;;;;;4948121;28;20183;-71
2022/10/17 02:56:24;;;;;;;20.70;6.85;;;;;;;;;;4947655;28;20061;-72
2022/10/17 02:58:52;;;;;;;15.90;6.93;;;;;;;;;;4965227;28;20050;-71
2022/10/17 03:01:19;;;;;;;18.25;7.47;;;;;;;;;;4964032;28;20050;-73
2022/10/17 03:03:47;;;;;;;12.27;7.13;;;;;;;;;;4948164;28;20051;-72
2022/10/17 03:06:14;;;;;;;16.38;7.85;;;;;;;;;;4941619;28;20139;-72
2022/10/17 03:08:41;;;;;;;22.02;7.78;;;;;;;;;;4964965;28;20057;-72
2022/10/17 03:11:10;;;;;;;20.77;7.38;;;;;;;;;;4947464;28;20109;-70
2022/10/17 03:13:37;;;;;;;14.73;7.70;;;;;;;;;;4948172;28;20054;-72
2022/10/17 03:16:05;;;;;;;16.48;8.88;;;;;;;;;;4947795;28;20058;-71
2022/10/17 03:18:32;;;;;;;20.20;9.00;;;;;;;;;;4947242;28;20055;-71
2022/10/17 03:20:59;;;;;;;13.98;8.98;;;;;;;;;;4952478;28;20043;-71
2022/10/17 03:23:26;;;;;;;17.23;9.88;;;;;;;;;;4951103;28;20446;-71
2022/10/17 03:25:54;;;;;;;18.58;10.73;;;;;;;;;;4969690;28;20172;-71
2022/10/17 03:28:22;;;;;;;20.13;9.73;;;;;;;;;;4950010;28;20054;-71
2022/10/17 03:30:50;;;;;;;15.70;9.98;;;;;;;;;;4967919;28;20528;-71
2022/10/17 03:33:17;;;;;;;18.70;11.07;;;;;;;;;;4953311;28;20147;-73
2022/10/17 03:35:44;;;;;;;18.30;10.38;;;;;;;;;;4950189;28;20110;-71
2022/10/17 03:38:11;;;;;;;19.05;10.68;;;;;;;;;;4964206;28;20046;-72
2022/10/17 03:40:39;;;;;;;18.83;10.90;;;;;;;;;;4968614;28;20059;-71
2022/10/17 03:43:06;;;;;;;22.75;11.95;;;;;;;;;;4951835;28;20062;-72
2022/10/17 03:45:35;;;;;;;22.75;11.75;;;;;;;;;;4952456;28;20102;-71
2022/10/17 03:48:02;;;;;;;19.67;12.50;;;;;;;;;;4966087;28;20486;-73
2022/10/17 03:50:30;;;;;;;23.75;12.63;;;;;;;;;;4951036;28;20063;-71
2022/10/17 03:52:57;;;;;;;19.70;13.25;;;;;;;;;;4967817;28;20046;-71
2022/10/17 03:55:25;;;;;;;21.17;13.13;;;;;;;;;;4950235;28;20066;-71
2022/10/17 03:57:52;;;;;;;17.90;13.27;;;;;;;;;;4954199;28;20795;-71
2022/10/17 04:00:19;;;;;;;23.77;13.63;;;;;;;;;;4948770;28;20491;-72
2022/10/17 04:02:48;;;;;;;21.95;14.38;;;;;;;;;;4951419;28;20059;-71
2022/10/17 04:05:15;;;;;;;29.25;14.65;;;;;;;;;;4949425;28;20417;-72
2022/10/17 04:07:42;;;;;;;26.33;14.82;;;;;;;;;;4968374;28;20054;-73
2022/10/17 04:10:10;;;;;;;22.27;13.57;;;;;;;;;;4949353;28;20051;-71
2022/10/17 04:12:37;;;;;;;26.63;14.68;;;;;;;;;;4945532;28;20055;-72
2022/10/17 04:15:05;;;;;;;23.88;15.10;;;;;;;;;;4966225;28;20502;-71
2022/10/17 04:17:32;;;;;;;24.25;15.93;;;;;;;;;;4950769;28;20142;-71
2022/10/17 04:20:01;;;;;;;27.23;15.38;;;;;;;;;;4962071;28;20046;-71
2022/10/17 04:22:28;;;;;;;25.45;16.50;;;;;;;;;;4948623;28;20058;-71
2022/10/17 04:24:55;;;;;;;25.80;16.40;;;;;;;;;;4949481;28;20731;-71
2022/10/17 04:27:22;;;;;;;26.20;17.23;;;;;;;;;;4947560;28;20053;-71
2022/10/17 04:29:50;;;;;;;25.67;16.85;;;;;;;;;;4945862;28;20042;-72
2022/10/17 04:32:17;;;;;;;31.77;18.38;;;;;;;;;;4951031;28;20057;-72
2022/10/17 04:34:44;;;;;;;28.02;17.73;;;;;;;;;;4949980;28;20055;-70
2022/10/17 04:37:13;;;;;;;28.83;17.92;;;;;;;;;;4951764;28;20137;-71
2022/10/17 04:39:40;;;;;;;30.38;17.27;;;;;;;;;;4964154;28;20058;-71
2022/10/17 04:42:07;;;;;;;31.95;18.85;;;;;;;;;;4966138;28;20054;-71
2022/10/17 04:44:34;;;;;;;28.63;18.02;;;;;;;;;;4950423;28;20314;-71
2022/10/17 04:47:02;;;;;;;28.55;17.92;;;;;;;;;;4949459;28;20055;-71
2022/10/17 04:49:29;;;;;;;28.73;18.83;;;;;;;;;;4966662;28;20490;-71
2022/10/17 04:51:56;;;;;;;33.60;19.52;;;;;;;;;;4948315;28;20054;-72
2022/10/17 04:54:25;;;;;;;34.70;19.00;;;;;;;;;;4949735;28;20509;-71
2022/10/17 04:56:52;;;;;;;31.42;19.35;;;;;;;;;;4952835;28;20134;-71
2022/10/17 04:59:19;;;;;;;32.22;19.00;;;;;;;;;;4949938;28;20050;-72
2022/10/17 05:01:47;;;;;;;30.25;18.80;;;;;;;;;;4949267;28;20751;-71
2022/10/17 05:04:14;;;;;;;30.60;19.00;;;;;;;;;;4950777;28;20047;-72
2022/10/17 05:06:41;;;;;;;32.40;20.38;;;;;;;;;;4944272;28;20062;-72
2022/10/17 05:09:08;;;;;;;36.00;20.73;;;;;;;;;;4943691;28;20043;-72
2022/10/17 05:11:37;;;;;;;31.67;20.42;;;;;;;;;;4947331;28;20698;-72
2022/10/17 05:14:05;;;;;;;33.90;19.70;;;;;;;;;;4941324;28;20186;-71
2022/10/17 05:16:32;;;;;;;35.05;20.33;;;;;;;;;;4961306;28;20520;-70
2022/10/17 05:18:59;;;;;;;28.73;19.02;;;;;;;;;;4948938;28;20133;-72
2022/10/17 05:21:27;;;;;;;36.90;21.73;;;;;;;;;;4965454;28;20050;-72
2022/10/17 05:23:54;;;;;;;34.85;22.33;;;;;;;;;;4950911;28;20050;-72
2022/10/17 05:26:22;;;;;;;37.50;22.83;;;;;;;;;;4942690;28;20055;-72
2022/10/17 05:28:51;;;;;;;32.55;21.98;;;;;;;;;;4946301;28;20054;-71
2022/10/17 05:31:19;;;;;;;34.58;21.58;;;;;;;;;;4944955;28;20058;-71
2022/10/17 05:33:46;;;;;;;36.00;21.88;;;;;;;;;;4946849;28;20414;-73
2022/10/17 05:36:14;;;;;;;36.13;22.10;;;;;;;;;;4944040;28;20494;-71
2022/10/17 05:38:41;;;;;;;32.60;20.92;;;;;;;;;;4947059;28;20054;-71
2022/10/17 05:41:08;;;;;;;33.00;20.95;;;;;;;;;;4946861;28;20202;-71
2022/10/17 05:43:35;;;;;;;38.03;21.40;;;;;;;;;;4946995;28;20446;-72
2022/10/17 05:46:05;;;;;;;35.72;21.17;;;;;;;;;;4966370;28;20056;-72
2022/10/17 05:48:33;;;;;;;33.88;20.95;;;;;;;;;;4954308;28;20082;-72
2022/10/17 05:51:01;;;;;;;35.88;21.48;;;;;;;;;;4948236;28;20052;-71
2022/10/17 05:53:30;;;;;;;36.28;20.15;;;;;;;;;;4944995;28;20059;-73
2022/10/17 05:55:58;;;;;;;35.10;19.85;;;;;;;;;;4964177;28;20153;-72
2022/10/17 05:58:25;;;;;;;34.22;19.23;;;;;;;;;;4965140;28;20109;-72
2022/10/17 06:00:52;;;;;;;33.55;20.38;;;;;;;;;;4948456;28;20417;-71
2022/10/17 06:03:21;;;;;;;33.60;21.17;;;;;;;;;;4945172;28;20505;-71
2022/10/17 06:05:48;;;;;;;37.38;20.92;;;;;;;;;;4944670;28;20066;-72
2022/10/17 06:08:15;;;;;;;36.05;20.45;;;;;;;;;;4963465;28;20525;-71
2022/10/17 06:10:43;;;;;;;28.23;18.88;;;;;;;;;;4960765;28;20047;-72
2022/10/17 06:13:10;;;;;;;36.45;20.27;;;;;;;;;;4946775;28;20074;-71
2022/10/17 06:15:37;;;;;;;31.00;20.08;;;;;;;;;;4947773;28;20096;-72
2022/10/17 06:18:04;;;;;;;31.67;19.65;;;;;;;;;;4948516;28;20078;-71
2022/10/17 06:20:33;;;;;;;36.88;19.95;;;;;;;;;;4947876;28;20054;-72
2022/10/17 06:23:00;;;;;;;32.35;19.52;;;;;;;;;;4965332;28;20055;-72
2022/10/17 06:25:28;;;;;;;36.65;19.92;;;;;;;;;;4947875;28;20066;-71
2022/10/17 06:27:55;;;;;;;31.50;17.85;;;;;;;;;;4947761;28;20095;-71
2022/10/17 06:30:22;;;;;;;36.97;19.02;;;;;;;;;;4942088;28;20065;-71
2022/10/17 06:32:50;;;;;;;29.65;18.25;;;;;;;;;;4945418;28;20047;-71
2022/10/17 06:35:17;;;;;;;28.63;17.95;;;;;;;;;;4949102;28;20167;-71
2022/10/17 06:37:45;;;;;;;25.42;17.27;;;;;;;;;;4952679;28;20051;-72
2022/10/17 06:40:15;;;;;;;30.38;18.00;;;;;;;;;;4946244;28;20051;-71
2022/10/17 06:42:43;;;;;;;28.95;18.45;;;;;;;;;;4959598;28;20054;-71
2022/10/17 06:45:11;;;;;;;29.00;18.27;;;;;;;;;;4965942;28;20089;-72
2022/10/17 06:47:38;;;;;;;31.35;18.30;;;;;;;;;;4947775;28;20503;-71
2022/10/17 06:50:06;;;;;;;31.27;18.40;;;;;;;;;;4942432;28;20402;-72
2022/10/17 06:52:33;;;;;;;28.52;17.73;;;;;;;;;;4948092;28;20059;-71
2022/10/17 06:55:01;;;;;;;27.17;17.42;;;;;;;;;;4947561;28;20059;-72
2022/10/17 06:57:29;;;;;;;27.10;17.00;;;;;;;;;;4962981;28;20050;-70
2022/10/17 06:59:56;;;;;;;26.42;16.60;;;;;;;;;;4962855;28;20490;-71
2022/10/17 07:02:24;;;;;;;28.13;17.17;;;;;;;;;;4968731;28;20059;-72
2022/10/17 07:04:51;;;;;;;27.15;16.65;;;;;;;;;;4946244;28;20058;-70
2022/10/17 07:07:18;;;;;;;26.98;16.23;;;;;;;;;;4952370;28;20054;-71
2022/10/17 07:09:45;;;;;;;29.85;15.65;;;;;;;;;;4964333;28;20051;-74
2022/10/17 07:12:14;;;;;;;25.52;15.43;;;;;;;;;;4965325;28;20502;-71
2022/10/17 07:14:41;;;;;;;25.75;15.35;;;;;;;;;;4962047;28;20047;-73
2022/10/17 07:17:09;;;;;;;26.60;15.77;;;;;;;;;;4945835;28;20071;-72
2022/10/17 07:19:36;;;;;;;26.42;14.90;;;;;;;;;;4960290;28;20054;-72
2022/10/17 07:22:04;;;;;;;26.70;15.05;;;;;;;;;;4945795;29;20055;-71
2022/10/17 07:24:31;;;;;;;23.40;14.77;;;;;;;;;;4964813;28;20050;-71
2022/10/17 07:26:58;;;;;;;25.10;13.77;;;;;;;;;;4967749;28;20063;-71
2022/10/17 07:29:27;;;;;;;26.02;13.82;;;;;;;;;;4947961;28;20521;-71
2022/10/17 07:31:54;;;;;;;25.98;15.07;;;;;;;;;;4949522;28;20170;-70
2022/10/17 07:34:26;;;;;;;24.55;13.05;;;;;;;;;;4945099;28;20063;-71
2022/10/17 07:36:53;;;;;;;18.80;13.30;;;;;;;;;;4947990;28;20515;-71
2022/10/17 07:39:20;;;;;;;17.67;11.98;;;;;;;;;;4966594;28;20105;-72
2022/10/17 07:41:49;;;;;;;23.67;12.27;;;;;;;;;;4949556;28;20054;-71
2022/10/17 07:44:16;;;;;;;18.52;12.40;;;;;;;;;;4950310;28;20054;-71
2022/10/17 07:46:45;;;;;;;16.30;11.73;;;;;;;;;;4950784;28;20139;-73
2022/10/17 07:49:12;;;;;;;18.75;12.38;;;;;;;;;;4947038;28;21271;-71
2022/10/17 07:51:40;;;;;;;16.83;12.10;;;;;;;;;;4969024;28;20058;-71
2022/10/17 07:54:07;;;;;;;22.83;11.65;;;;;;;;;;4965294;28;20065;-70
2022/10/17 07:56:34;;;;;;;18.42;12.15;;;;;;;;;;4952317;28;20802;-71
2022/10/17 07:59:01;;;;;;;17.10;11.30;;;;;;;;;;4953008;28;20050;-71
2022/10/17 08:01:29;;;;;;;23.30;11.40;;;;;;;;;;4957532;28;20050;-71
2022/10/17 08:03:57;;;;;;;18.27;10.80;;;;;;;;;;4946223;28;20055;-72
2022/10/17 08:06:25;;;;;;;17.40;9.82;;;;;;;;;;4946273;28;20055;-71
2022/10/17 08:08:52;;;;;;;20.50;10.15;;;;;;;;;;4946500;28;20043;-71
2022/10/17 08:11:20;;;;;;;18.65;10.38;;;;;;;;;;4966416;28;21527;-72
2022/10/17 08:13:47;;;;;;;14.63;9.55;;;;;;;;;;4948228;28;20054;-70
2022/10/17 08:16:14;;;;;;;18.38;10.32;;;;;;;;;;4948655;28;20532;-71
2022/10/17 08:18:42;;;;;;;19.10;10.23;;;;;;;;;;4955095;28;20105;-72
2022/10/17 08:21:12;;;;;;;14.35;9.95;;;;;;;;;;4950924;28;20065;-71
2022/10/17 08:23:39;;;;;;;19.38;11.63;;;;;;;;;;4946814;28;20102;-73
2022/10/17 08:26:09;;;;;;;17.52;10.88;;;;;;;;;;4948764;28;20701;-70
2022/10/17 08:28:36;;;;;;;20.40;10.50;;;;;;;;;;4949726;28;20061;-72
2022/10/17 08:31:05;;;;;;;20.08;10.60;;;;;;;;;;4964845;28;20053;-71
2022/10/17 08:33:33;;;;;;;16.40;9.75;;;;;;;;;;4946853;28;20051;-71
2022/10/17 08:36:00;;;;;;;16.48;9.45;;;;;;;;;;4949795;28;20141;-71
2022/10/17 08:38:29;;;;;;;14.93;9.23;;;;;;;;;;4965614;28;20039;-71
2022/10/17 08:40:58;;;;;;;14.13;9.07;;;;;;;;;;4965950;28;20039;-73
2022/10/17 08:43:29;;;;;;;15.52;9.68;;;;;;;;;;4966089;28;20091;-69
2022/10/17 08:45:59;;;;;;;13.25;9.30;;;;;;;;;;4947047;28;20066;-72
2022/10/17 08:48:27;;;;;;;16.77;10.20;;;;;;;;;;4948466;28;20051;-71
2022/10/17 08:50:57;;;;;;;15.73;9.40;;;;;;;;;;4949391;28;20051;-71
2022/10/17 08:53:26;;;;;;;13.20;9.70;;;;;;;;;;4946273;28;20059;-70
2022/10/17 08:55:55;;;;;;;15.73;9.65;;;;;;;;;;4965711;28;20494;-72
2022/10/17 08:58:23;;;;;;;16.33;10.52;;;;;;;;;;4949263;28;20675;-72
2022/10/17 09:00:54;;;;;;;19.25;11.27;;;;;;;;;;4950138;28;20070;-68
2022/10/17 09:03:28;;;;;;;20.67;12.27;;;;;;;;;;4963573;28;20506;-68
2022/10/17 09:06:00;;;;;;;24.63;11.80;;;;;;;;;;4959930;28;20138;-70
2022/10/17 09:08:34;;;;;;;23.23;12.90;;;;;;;;;;4964582;28;20055;-70
2022/10/17 09:11:05;;;;;;;21.27;12.82;;;;;;;;;;4960607;28;20055;-70
2022/10/17 09:13:38;;;;;;;29.08;13.52;;;;;;;;;;4965903;28;20051;-70
2022/10/17 09:16:15;;;;;;;24.65;14.45;;;;;;;;;;4959198;28;20051;-69
2022/10/17 09:18:43;;;;;;;24.27;13.63;;;;;;;;;;4965382;28;20051;-69
2022/10/17 09:21:18;;;;;;;27.85;15.02;;;;;;;;;;4965392;28;20410;-68
2022/10/17 09:23:48;;;;;;;24.70;14.48;;;;;;;;;;4966025;28;20050;-68
2022/10/17 09:26:16;;;;;;;35.17;17.10;;;;;;;;;;4966231;28;20055;-68
2022/10/17 09:28:44;;;;;;;24.17;15.93;;;;;;;;;;4965249;28;20410;-68
2022/10/17 09:31:14;;;;;;;29.33;15.75;;;;;;;;;;4964508;28;20047;-69
2022/10/17 09:33:42;;;;;;;34.08;16.17;;;;;;;;;;4965799;28;20059;-69
2022/10/17 09:36:11;;;;;;;32.17;16.13;;;;;;;;;;4950099;28;20406;-68
2022/10/17 09:38:40;;;;;;;34.38;17.67;;;;;;;;;;4964229;28;20494;-69
2022/10/17 09:41:13;;;;;;;37.58;18.40;;;;;;;;;;4964045;28;20553;-68
2022/10/17 09:43:42;;;;;;;38.25;19.45;;;;;;;;;;4948390;28;20136;-70
2022/10/17 09:46:13;;;;;;;37.78;18.83;;;;;;;;;;4963707;28;20524;-68
2022/10/17 09:48:44;;;;;;;46.35;18.15;;;;;;;;;;4948889;28;20062;-68
2022/10/17 09:51:12;;;;;;;42.13;18.73;;;;;;;;;;4965099;28;20134;-70
2022/10/17 09:53:40;;;;;;;46.22;19.38;;;;;;;;;;4947148;28;20067;-69
2022/10/17 09:56:09;;;;;;;38.08;18.58;;;;;;;;;;4965328;28;20053;-71
2022/10/17 09:58:45;;;;;;;43.33;20.60;;;;;;;;;;4966497;28;20062;-72
2022/10/17 10:01:17;;;;;;;42.03;19.08;;;;;;;;;;4964180;28;20054;-71
2022/10/17 10:03:44;;;;;;;46.72;20.02;;;;;;;;;;4965782;28;20159;-71
2022/10/17 10:06:14;;;;;;;58.88;23.80;;;;;;;;;;4958006;28;20459;-72
2022/10/17 10:08:49;;;;;;;53.40;22.33;;;;;;;;;;4964700;28;20070;-69
2022/10/17 10:11:16;;;;;;;65.07;24.67;;;;;;;;;;4946957;28;20065;-72
2022/10/17 10:13:47;;;;;;;47.85;22.27;;;;;;;;;;4963616;28;20058;-71
2022/10/17 10:16:19;;;;;;;54.72;23.52;;;;;;;;;;4959044;28;20073;-72
2022/10/17 10:18:47;;;;;;;45.20;22.40;;;;;;;;;;4966469;28;20051;-71
2022/10/17 10:21:15;;;;;;;59.40;25.35;;;;;;;;;;4966353;28;20057;-71
2022/10/17 10:23:43;;;;;;;58.65;24.75;;;;;;;;;;4963233;28;20414;-72
2022/10/17 10:26:20;;;;;;;54.33;25.02;;;;;;;;;;4947530;28;20050;-72
2022/10/17 10:28:53;;;;;;;60.88;26.88;;;;;;;;;;4969419;28;20521;-71
2022/10/17 10:31:20;;;;;;;;;;;;;;;;;;4950496;28;20059;-71
2022/10/17 10:33:48;;;;;;;76.88;27.50;;;;;;;;;;4951072;28;19929;-71
2022/10/17 10:36:15;;;;;;;61.60;26.05;;;;;;;;;;4970270;28;20085;-72
2022/10/17 10:38:43;;;;;;;60.80;25.63;;;;;;;;;;4951182;28;20054;-71
2022/10/17 10:41:11;;;;;;;74.40;29.67;;;;;;;;;;4969504;28;20051;-71
2022/10/17 10:43:41;;;;;;;71.65;29.80;;;;;;;;;;4966465;28;20051;-72
2022/10/17 10:46:18;;;;;;;60.20;26.98;;;;;;;;;;4969330;28;20050;-72
2022/10/17 10:48:51;;;;;;;67.03;29.17;;;;;;;;;;4970380;28;20054;-71
2022/10/17 10:51:20;;;;;;;48.03;24.02;;;;;;;;;;4950917;28;20580;-71
2022/10/17 10:53:50;;;;;;;62.60;25.98;;;;;;;;;;4970041;28;20058;-72
2022/10/17 10:56:19;;;;;;;73.32;29.30;;;;;;;;;;4966187;28;20062;-72
2022/10/17 10:58:50;;;;;;;74.85;29.50;;;;;;;;;;4968235;28;20054;-72
2022/10/17 11:01:22;;;;;;;69.90;29.30;;;;;;;;;;4950977;28;20548;-73
2022/10/17 11:03:56;;;;;;;100.07;34.00;;;;;;;;;;4967316;28;20062;-72
2022/10/17 11:06:26;;;;;;;58.80;25.50;;;;;;;;;;4969105;28;20059;-72
2022/10/17 11:08:59;;;;;;;64.28;27.33;;;;;;;;;;4965852;28;20489;-72
2022/10/17 11:11:28;;;;;;;59.78;25.65;;;;;;;;;;4964410;28;20039;-72
2022/10/17 11:13:59;;;;;;;53.28;23.83;;;;;;;;;;4951823;28;20059;-71
2022/10/17 11:16:33;;;;;;;68.03;28.58;;;;;;;;;;4950244;28;20512;-72
2022/10/17 11:19:03;;;;;;;57.85;25.58;;;;;;;;;;4962353;28;20051;-73
2022/10/17 11:21:36;;;;;;;120.55;35.63;;;;;;;;;;4968368;28;20062;-73
2022/10/17 11:24:07;;;;;;;98.43;34.67;;;;;;;;;;4967741;28;20046;-72
2022/10/17 11:26:36;;;;;;;59.90;28.00;;;;;;;;;;4968198;28;20050;-73
2022/10/17 11:29:05;;;;;;;62.47;29.13;;;;;;;;;;4955159;28;20450;-72
2022/10/17 11:31:35;;;;;;;49.75;24.73;;;;;;;;;;4966954;28;20057;-72
2022/10/17 11:34:05;;;;;;;70.40;29.02;;;;;;;;;;4964391;28;20066;-73
2022/10/17 11:36:34;;;;;;;44.28;23.52;;;;;;;;;;4969178;28;20047;-72
2022/10/17 11:39:03;;;;;;;51.92;25.00;;;;;;;;;;4958933;28;20050;-72
2022/10/17 11:41:33;;;;;;;43.78;20.88;;;;;;;;;;4960818;28;20074;-72
2022/10/17 11:44:04;;;;;;;40.33;19.48;;;;;;;;;;4967197;28;20074;-71
2022/10/17 11:46:35;;;;;;;42.38;20.30;;;;;;;;;;4968826;28;20061;-71
2022/10/17 11:49:07;;;;;;;41.83;20.50;;;;;;;;;;4944728;28;20058;-71
2022/10/17 11:51:39;;;;;;;31.02;16.25;;;;;;;;;;4959351;28;20126;-71
2022/10/17 11:54:12;;;;;;;56.65;20.88;;;;;;;;;;4966811;28;20054;-71
2022/10/17 11:56:42;;;;;;;34.60;16.17;;;;;;;;;;4962365;28;20055;-71
2022/10/17 11:59:21;;;;;;;38.72;17.08;;;;;;;;;;4968276;28;20062;-70
2022/10/17 12:01:51;;;;;;;37.30;17.23;;;;;;;;;;4968056;28;20171;-71
2022/10/17 12:04:25;;;;;;;36.03;17.17;;;;;;;;;;4960600;28;20055;-70
2022/10/17 12:06:58;;;;;;;38.00;16.90;;;;;;;;;;4967259;28;20047;-71
2022/10/17 12:09:28;;;;;;;37.40;17.27;;;;;;;;;;4964843;28;20755;-72
2022/10/17 12:11:56;;;;;;;43.03;18.20;;;;;;;;;;4967283;28;20046;-71
2022/10/17 12:14:50;;;;;;;38.92;18.63;;;;;;;;;;4967769;28;20050;-71
2022/10/17 12:17:33;;;;;;;33.80;15.95;;;;;;;;;;4923092;28;20047;-71
2022/10/17 12:20:27;;;;;;;38.07;15.83;;;;;;;;;;4945447;28;20051;-71
2022/10/17 12:22:57;;;;;;;33.13;16.15;;;;;;;;;;4896500;28;20054;-71
2022/10/17 12:25:28;;;;;;;52.40;20.52;;;;;;;;;;4967113;28;20055;-71
2022/10/17 12:28:12;;;;;;;28.73;12.48;;;;;;;;;;4965523;28;20047;-71
2022/10/17 12:30:49;;;;;;;22.98;11.35;;;;;;;;;;4965825;28;20054;-70
2022/10/17 12:33:21;;;;;;;15.02;7.45;;;;;;;;;;4961030;28;20062;-71
2022/10/17 12:35:50;;;;;;;23.63;11.35;;;;;;;;;;4961814;28;20150;-71
2022/10/17 12:38:26;;;;;;;26.25;12.95;;;;;;;;;;4967713;28;20043;-71
2022/10/17 12:40:57;;;;;;;26.33;11.60;;;;;;;;;;4967210;28;20043;-71
2022/10/17 12:43:48;;;;;;;21.58;11.73;;;;;;;;;;4967649;28;20067;-72
2022/10/17 12:46:30;;;;;;;28.95;14.07;;;;;;;;;;4966201;28;20047;-72
2022/10/17 12:49:06;;;;;;;30.20;13.18;;;;;;;;;;4966418;28;20054;-72
2022/10/17 12:51:48;;;;;;;35.58;16.20;;;;;;;;;;4961680;28;20101;-72
2022/10/17 12:54:16;;;;;;;33.30;14.93;;;;;;;;;;4963952;28;20050;-72
2022/10/17 12:56:45;;;;;;;21.92;10.77;;;;;;;;;;4950847;28;20101;-72
2022/10/17 12:59:15;;;;;;;20.88;9.68;;;;;;;;;;4967368;28;20050;-72
2022/10/17 13:01:45;;;;;;;19.83;8.68;;;;;;;;;;4944954;28;20402;-72
2022/10/17 13:04:12;;;;;;;21.58;8.32;;;;;;;;;;4967707;28;20398;-72
2022/10/17 13:06:44;;;;;;;17.50;7.18;;;;;;;;;;4943068;28;20133;-72
2022/10/17 13:09:19;;;;;;;20.25;8.70;;;;;;;;;;4964086;28;20046;-72
2022/10/17 13:11:46;;;;;;;19.77;7.90;;;;;;;;;;4967018;28;20042;-73
2022/10/17 13:14:14;;;;;;;16.60;6.72;;;;;;;;;;4967159;28;20066;-73
2022/10/17 13:16:51;;;;;;;19.27;8.38;;;;;;;;;;4949607;28;20063;-72
2022/10/17 13:19:19;;;;;;;17.40;7.05;;;;;;;;;;4961695;28;20053;-72
2022/10/17 13:21:55;;;;;;;14.82;6.72;;;;;;;;;;4967030;28;20068;-73
2022/10/17 13:24:28;;;;;;;13.32;6.18;;;;;;;;;;4967156;28;20055;-73
2022/10/17 13:26:55;;;;;;;18.90;6.60;;;;;;;;;;4947678;28;20113;-73
2022/10/17 13:29:25;;;;;;;19.48;6.20;;;;;;;;;;4964078;28;20607;-73
2022/10/17 13:31:53;;;;;;;23.42;7.35;;;;;;;;;;4961750;28;20085;-73
2022/10/17 13:34:22;;;;;;;19.50;6.90;;;;;;;;;;4966834;28;20803;-73
2022/10/17 13:36:51;;;;;;;17.85;6.25;;;;;;;;;;4960120;28;20066;-73
2022/10/17 13:39:19;;;;;;;20.55;7.35;;;;;;;;;;4966907;28;20042;-73
2022/10/17 13:41:48;;;;;;;16.35;6.75;;;;;;;;;;4945368;28;20860;-73
2022/10/17 13:44:17;;;;;;;13.93;6.45;;;;;;;;;;4964564;28;20055;-73
2022/10/17 13:46:44;;;;;;;19.45;8.43;;;;;;;;;;4966944;28;20072;-73
2022/10/17 13:49:15;;;;;;;15.73;6.45;;;;;;;;;;4947113;28;20548;-73
2022/10/17 13:51:44;;;;;;;13.48;6.63;;;;;;;;;;4963209;28;20046;-74
2022/10/17 13:54:18;;;;;;;20.27;6.63;;;;;;;;;;4965976;28;20640;-73
2022/10/17 13:56:45;;;;;;;21.73;6.20;;;;;;;;;;4947929;28;20061;-74
2022/10/17 13:59:22;;;;;;;13.95;5.45;;;;;;;;;;4944172;28;20421;-73
2022/10/17 14:01:51;;;;;;;14.38;5.25;;;;;;;;;;4950136;28;20051;-73
2022/10/17 14:04:18;;;;;;;12.45;4.90;;;;;;;;;;4948390;28;20782;-73
2022/10/17 14:06:46;;;;;;;14.75;5.25;;;;;;;;;;4950270;28;20058;-73
2022/10/17 14:09:18;;;;;;;12.45;4.80;;;;;;;;;;4965292;28;20046;-73
2022/10/17 14:11:46;;;;;;;9.77;4.10;;;;;;;;;;4947614;28;20050;-73
2022/10/17 14:14:19;;;;;;;15.65;4.57;;;;;;;;;;4941290;28;20055;-73
2022/10/17 14:16:47;;;;;;;15.20;4.40;;;;;;;;;;4949329;28;20062;-74
2022/10/17 14:19:21;;;;;;;14.73;4.82;;;;;;;;;;4966101;28;20047;-73
2022/10/17 14:21:48;;;;;;;15.65;5.82;;;;;;;;;;4965900;28;20059;-73
2022/10/17 14:24:26;;;;;;;10.20;4.20;;;;;;;;;;4945534;28;20496;-73
2022/10/17 14:26:54;;;;;;;13.60;4.75;;;;;;;;;;4964585;28;20046;-74
2022/10/17 14:29:24;;;;;;;14.45;4.30;;;;;;;;;;4948213;28;20114;-72
2022/10/17 14:31:57;;;;;;;11.05;4.90;;;;;;;;;;4959014;28;20837;-73
2022/10/17 14:34:28;;;;;;;9.65;4.10;;;;;;;;;;4938076;28;20110;-73
2022/10/17 14:36:56;;;;;;;18.90;4.43;;;;;;;;;;4949574;28;20058;-73